sensor_id;sensor_type;location;lat;lon;timestamp;P1;durP1;ratioP1;P2;durP2;ratioP2
1308;SDS011;647;48.840;9.314;2022-11-12T00:00:57;75.22;;;16.85;;
1308;SDS011;647;48.840;9.314;2022-11-12T00:03:24;73.20;;;15.80;;
1308;SDS011;647;48.840;9.314;2022-11-12T00:05:51;73.25;;;16.67;;
1308;SDS011;647;48.840;9.314;2022-11-12T00:08:18;73.82;;;17.25;;
1308;SDS011;647;48.840;9.314;2022-11-12T00:10:47;74.10;;;17.25;;
1308;SDS011;647;48.840;9.314;2022-11-12T00:13:13;74.90;;;16.58;;
1308;SDS011;647;48.840;9.314;2022-11-12T00:15:41;70.82;;;15.35;;
1308;SDS011;647;48.840;9.314;2022-11-12T00:18:07;74.32;;;14.93;;
1308;SDS011;647;48.840;9.314;2022-11-12T00:20:34;73.68;;;15.68;;
1308;SDS011;647;48.840;9.314;2022-11-12T00:23:01;76.20;;;17.52;;
1308;SDS011;647;48.840;9.314;2022-11-12T00:25:29;75.22;;;15.93;;
1308;SDS011;647;48.840;9.314;2022-11-12T00:28:00;74.03;;;16.23;;
1308;SDS011;647;48.840;9.314;2022-11-12T00:30:28;72.70;;;17.50;;
1308;SDS011;647;48.840;9.314;2022-11-12T00:32:55;74.40;;;15.73;;
1308;SDS011;647;48.840;9.314;2022-11-12T00:35:21;74.53;;;16.58;;
1308;SDS011;647;48.840;9.314;2022-11-12T00:37:52;91.85;;;17.50;;
1308;SDS011;647;48.840;9.314;2022-11-12T00:40:20;75.15;;;17.23;;
1308;SDS011;647;48.840;9.314;2022-11-12T00:42:49;75.55;;;15.95;;
1308;SDS011;647;48.840;9.314;2022-11-12T00:45:18;74.00;;;16.13;;
1308;SDS011;647;48.840;9.314;2022-11-12T00:47:45;72.95;;;14.48;;
1308;SDS011;647;48.840;9.314;2022-11-12T00:50:12;78.60;;;16.25;;
1308;SDS011;647;48.840;9.314;2022-11-12T00:52:39;73.80;;;15.65;;
1308;SDS011;647;48.840;9.314;2022-11-12T00:55:06;72.18;;;17.00;;
1308;SDS011;647;48.840;9.314;2022-11-12T00:57:33;73.75;;;16.30;;
1308;SDS011;647;48.840;9.314;2022-11-12T01:00:00;77.97;;;15.90;;
1308;SDS011;647;48.840;9.314;2022-11-12T01:02:29;114.78;;;19.23;;
1308;SDS011;647;48.840;9.314;2022-11-12T01:04:56;75.25;;;14.90;;
1308;SDS011;647;48.840;9.314;2022-11-12T01:07:22;79.85;;;15.90;;
1308;SDS011;647;48.840;9.314;2022-11-12T01:09:49;75.35;;;15.85;;
1308;SDS011;647;48.840;9.314;2022-11-12T01:12:16;83.70;;;16.85;;
1308;SDS011;647;48.840;9.314;2022-11-12T01:14:43;73.55;;;15.10;;
1308;SDS011;647;48.840;9.314;2022-11-12T01:17:10;108.50;;;15.48;;
1308;SDS011;647;48.840;9.314;2022-11-12T01:19:38;151.60;;;20.15;;
1308;SDS011;647;48.840;9.314;2022-11-12T01:22:04;99.35;;;17.48;;
1308;SDS011;647;48.840;9.314;2022-11-12T01:24:31;72.28;;;13.70;;
1308;SDS011;647;48.840;9.314;2022-11-12T01:26:58;74.47;;;15.02;;
1308;SDS011;647;48.840;9.314;2022-11-12T01:29:25;69.55;;;14.32;;
1308;SDS011;647;48.840;9.314;2022-11-12T01:31:52;69.85;;;14.13;;
1308;SDS011;647;48.840;9.314;2022-11-12T01:34:18;71.95;;;14.13;;
1308;SDS011;647;48.840;9.314;2022-11-12T01:36:46;74.93;;;14.85;;
1308;SDS011;647;48.840;9.314;2022-11-12T01:39:13;71.82;;;14.57;;
1308;SDS011;647;48.840;9.314;2022-11-12T01:41:40;73.40;;;15.43;;
1308;SDS011;647;48.840;9.314;2022-11-12T01:44:08;70.35;;;15.05;;
1308;SDS011;647;48.840;9.314;2022-11-12T01:46:37;129.18;;;20.10;;
1308;SDS011;647;48.840;9.314;2022-11-12T01:49:10;73.13;;;13.98;;
1308;SDS011;647;48.840;9.314;2022-11-12T01:51:41;70.20;;;14.40;;
1308;SDS011;647;48.840;9.314;2022-11-12T01:54:13;72.18;;;14.75;;
1308;SDS011;647;48.840;9.314;2022-11-12T01:56:42;71.15;;;15.32;;
1308;SDS011;647;48.840;9.314;2022-11-12T01:59:11;74.03;;;16.65;;
1308;SDS011;647;48.840;9.314;2022-11-12T02:01:41;72.40;;;15.32;;
1308;SDS011;647;48.840;9.314;2022-11-12T02:04:08;77.22;;;14.93;;
1308;SDS011;647;48.840;9.314;2022-11-12T02:06:35;89.65;;;16.65;;
1308;SDS011;647;48.840;9.314;2022-11-12T02:09:02;72.18;;;14.82;;
1308;SDS011;647;48.840;9.314;2022-11-12T02:11:31;76.43;;;13.93;;
1308;SDS011;647;48.840;9.314;2022-11-12T02:13:58;72.80;;;15.60;;
1308;SDS011;647;48.840;9.314;2022-11-12T02:16:26;132.15;;;21.02;;
1308;SDS011;647;48.840;9.314;2022-11-12T02:18:55;188.85;;;21.90;;
1308;SDS011;647;48.840;9.314;2022-11-12T02:21:24;125.97;;;18.65;;
1308;SDS011;647;48.840;9.314;2022-11-12T02:23:57;97.05;;;15.57;;
1308;SDS011;647;48.840;9.314;2022-11-12T02:26:25;220.23;;;24.42;;
1308;SDS011;647;48.840;9.314;2022-11-12T02:28:55;103.72;;;16.23;;
1308;SDS011;647;48.840;9.314;2022-11-12T02:31:22;104.60;;;17.83;;
1308;SDS011;647;48.840;9.314;2022-11-12T02:33:49;127.65;;;17.00;;
1308;SDS011;647;48.840;9.314;2022-11-12T02:36:16;107.07;;;15.38;;
1308;SDS011;647;48.840;9.314;2022-11-12T02:38:44;76.35;;;14.60;;
1308;SDS011;647;48.840;9.314;2022-11-12T02:41:11;71.32;;;14.75;;
1308;SDS011;647;48.840;9.314;2022-11-12T02:43:39;110.32;;;16.67;;
1308;SDS011;647;48.840;9.314;2022-11-12T02:46:06;117.78;;;19.30;;
1308;SDS011;647;48.840;9.314;2022-11-12T02:48:33;99.25;;;16.23;;
1308;SDS011;647;48.840;9.314;2022-11-12T02:51:00;86.72;;;15.13;;
1308;SDS011;647;48.840;9.314;2022-11-12T02:53:27;79.75;;;15.73;;
1308;SDS011;647;48.840;9.314;2022-11-12T02:55:57;98.85;;;16.30;;
1308;SDS011;647;48.840;9.314;2022-11-12T02:58:25;81.82;;;14.90;;
1308;SDS011;647;48.840;9.314;2022-11-12T03:00:52;70.63;;;13.88;;
1308;SDS011;647;48.840;9.314;2022-11-12T03:03:19;70.38;;;13.20;;
1308;SDS011;647;48.840;9.314;2022-11-12T03:05:52;69.80;;;13.00;;
1308;SDS011;647;48.840;9.314;2022-11-12T03:08:20;68.90;;;12.65;;
1308;SDS011;647;48.840;9.314;2022-11-12T03:10:47;69.70;;;13.70;;
1308;SDS011;647;48.840;9.314;2022-11-12T03:13:15;67.53;;;11.57;;
1308;SDS011;647;48.840;9.314;2022-11-12T03:15:42;67.63;;;12.10;;
1308;SDS011;647;48.840;9.314;2022-11-12T03:18:09;66.45;;;12.07;;
1308;SDS011;647;48.840;9.314;2022-11-12T03:20:36;70.75;;;13.20;;
1308;SDS011;647;48.840;9.314;2022-11-12T03:23:03;66.53;;;11.85;;
1308;SDS011;647;48.840;9.314;2022-11-12T03:25:32;70.18;;;12.60;;
1308;SDS011;647;48.840;9.314;2022-11-12T03:28:00;72.57;;;12.48;;
1308;SDS011;647;48.840;9.314;2022-11-12T03:30:31;69.28;;;12.82;;
1308;SDS011;647;48.840;9.314;2022-11-12T03:32:59;69.90;;;13.60;;
1308;SDS011;647;48.840;9.314;2022-11-12T03:35:26;70.00;;;11.80;;
1308;SDS011;647;48.840;9.314;2022-11-12T03:37:53;70.55;;;13.43;;
1308;SDS011;647;48.840;9.314;2022-11-12T03:40:20;67.88;;;12.52;;
1308;SDS011;647;48.840;9.314;2022-11-12T03:42:47;66.97;;;12.07;;
1308;SDS011;647;48.840;9.314;2022-11-12T03:45:15;71.20;;;13.10;;
1308;SDS011;647;48.840;9.314;2022-11-12T03:47:44;67.20;;;12.10;;
1308;SDS011;647;48.840;9.314;2022-11-12T03:50:12;69.10;;;13.18;;
1308;SDS011;647;48.840;9.314;2022-11-12T03:52:42;68.68;;;12.45;;
1308;SDS011;647;48.840;9.314;2022-11-12T03:55:10;69.15;;;13.05;;
1308;SDS011;647;48.840;9.314;2022-11-12T03:57:37;69.00;;;12.57;;
1308;SDS011;647;48.840;9.314;2022-11-12T04:00:05;71.07;;;13.27;;
1308;SDS011;647;48.840;9.314;2022-11-12T04:02:33;68.35;;;12.80;;
1308;SDS011;647;48.840;9.314;2022-11-12T04:05:01;71.10;;;12.38;;
1308;SDS011;647;48.840;9.314;2022-11-12T04:07:47;68.50;;;12.82;;
1308;SDS011;647;48.840;9.314;2022-11-12T04:10:32;70.82;;;13.45;;
1308;SDS011;647;48.840;9.314;2022-11-12T04:12:58;69.53;;;12.88;;
1308;SDS011;647;48.840;9.314;2022-11-12T04:15:43;70.93;;;13.18;;
1308;SDS011;647;48.840;9.314;2022-11-12T04:18:30;67.45;;;12.27;;
1308;SDS011;647;48.840;9.314;2022-11-12T04:21:15;71.18;;;14.30;;
1308;SDS011;647;48.840;9.314;2022-11-12T04:24:00;72.07;;;14.10;;
1308;SDS011;647;48.840;9.314;2022-11-12T04:26:26;71.22;;;14.25;;
1308;SDS011;647;48.840;9.314;2022-11-12T04:28:52;67.00;;;11.60;;
1308;SDS011;647;48.840;9.314;2022-11-12T04:31:36;73.35;;;14.10;;
1308;SDS011;647;48.840;9.314;2022-11-12T04:34:03;69.95;;;13.48;;
1308;SDS011;647;48.840;9.314;2022-11-12T04:36:45;68.45;;;13.05;;
1308;SDS011;647;48.840;9.314;2022-11-12T04:39:12;68.43;;;12.50;;
1308;SDS011;647;48.840;9.314;2022-11-12T04:41:39;67.40;;;12.38;;
1308;SDS011;647;48.840;9.314;2022-11-12T04:44:22;68.63;;;12.70;;
1308;SDS011;647;48.840;9.314;2022-11-12T04:47:07;70.82;;;12.30;;
1308;SDS011;647;48.840;9.314;2022-11-12T04:49:33;67.88;;;11.25;;
1308;SDS011;647;48.840;9.314;2022-11-12T04:52:02;65.78;;;11.18;;
1308;SDS011;647;48.840;9.314;2022-11-12T04:54:31;69.55;;;11.80;;
1308;SDS011;647;48.840;9.314;2022-11-12T04:56:59;69.53;;;12.30;;
1308;SDS011;647;48.840;9.314;2022-11-12T04:59:26;68.10;;;13.07;;
1308;SDS011;647;48.840;9.314;2022-11-12T05:01:52;66.60;;;11.43;;
1308;SDS011;647;48.840;9.314;2022-11-12T05:04:19;69.20;;;12.48;;
1308;SDS011;647;48.840;9.314;2022-11-12T05:06:47;67.95;;;11.23;;
1308;SDS011;647;48.840;9.314;2022-11-12T05:09:18;67.10;;;11.65;;
1308;SDS011;647;48.840;9.314;2022-11-12T05:11:46;66.45;;;10.45;;
1308;SDS011;647;48.840;9.314;2022-11-12T05:14:13;70.15;;;12.25;;
1308;SDS011;647;48.840;9.314;2022-11-12T05:16:41;66.18;;;11.13;;
1308;SDS011;647;48.840;9.314;2022-11-12T05:19:08;66.80;;;11.82;;
1308;SDS011;647;48.840;9.314;2022-11-12T05:21:34;67.35;;;11.80;;
1308;SDS011;647;48.840;9.314;2022-11-12T05:24:20;68.38;;;11.27;;
1308;SDS011;647;48.840;9.314;2022-11-12T05:26:47;67.53;;;12.00;;
1308;SDS011;647;48.840;9.314;2022-11-12T05:29:14;66.65;;;11.73;;
1308;SDS011;647;48.840;9.314;2022-11-12T05:31:41;65.25;;;10.35;;
1308;SDS011;647;48.840;9.314;2022-11-12T05:34:08;67.30;;;11.40;;
1308;SDS011;647;48.840;9.314;2022-11-12T05:36:35;69.22;;;12.27;;
1308;SDS011;647;48.840;9.314;2022-11-12T05:39:02;66.45;;;11.48;;
1308;SDS011;647;48.840;9.314;2022-11-12T05:41:30;68.00;;;11.77;;
1308;SDS011;647;48.840;9.314;2022-11-12T05:43:57;69.10;;;11.20;;
1308;SDS011;647;48.840;9.314;2022-11-12T05:46:24;67.80;;;10.90;;
1308;SDS011;647;48.840;9.314;2022-11-12T05:48:51;65.40;;;10.60;;
1308;SDS011;647;48.840;9.314;2022-11-12T05:51:18;64.30;;;10.48;;
1308;SDS011;647;48.840;9.314;2022-11-12T05:53:44;67.50;;;11.60;;
1308;SDS011;647;48.840;9.314;2022-11-12T05:56:11;67.88;;;10.38;;
1308;SDS011;647;48.840;9.314;2022-11-12T05:58:39;65.38;;;10.93;;
1308;SDS011;647;48.840;9.314;2022-11-12T06:01:06;67.45;;;11.02;;
1308;SDS011;647;48.840;9.314;2022-11-12T06:03:33;66.80;;;10.55;;
1308;SDS011;647;48.840;9.314;2022-11-12T06:06:00;67.38;;;9.60;;
1308;SDS011;647;48.840;9.314;2022-11-12T06:08:27;67.55;;;10.63;;
1308;SDS011;647;48.840;9.314;2022-11-12T06:10:54;64.97;;;10.52;;
1308;SDS011;647;48.840;9.314;2022-11-12T06:13:21;66.65;;;10.63;;
1308;SDS011;647;48.840;9.314;2022-11-12T06:15:51;65.75;;;10.32;;
1308;SDS011;647;48.840;9.314;2022-11-12T06:18:19;66.60;;;10.85;;
1308;SDS011;647;48.840;9.314;2022-11-12T06:20:46;67.10;;;11.20;;
1308;SDS011;647;48.840;9.314;2022-11-12T06:23:33;70.53;;;11.25;;
1308;SDS011;647;48.840;9.314;2022-11-12T06:26:00;65.53;;;9.98;;
1308;SDS011;647;48.840;9.314;2022-11-12T06:28:27;67.38;;;11.18;;
1308;SDS011;647;48.840;9.314;2022-11-12T06:30:55;64.53;;;10.30;;
1308;SDS011;647;48.840;9.314;2022-11-12T06:33:22;71.68;;;11.80;;
1308;SDS011;647;48.840;9.314;2022-11-12T06:35:55;68.15;;;11.95;;
1308;SDS011;647;48.840;9.314;2022-11-12T06:38:26;67.38;;;10.32;;
1308;SDS011;647;48.840;9.314;2022-11-12T06:40:54;65.90;;;10.65;;
1308;SDS011;647;48.840;9.314;2022-11-12T06:43:21;66.38;;;10.77;;
1308;SDS011;647;48.840;9.314;2022-11-12T06:45:47;68.32;;;11.50;;
1308;SDS011;647;48.840;9.314;2022-11-12T06:48:16;65.50;;;10.80;;
1308;SDS011;647;48.840;9.314;2022-11-12T06:50:42;67.55;;;10.75;;
1308;SDS011;647;48.840;9.314;2022-11-12T06:53:09;65.03;;;10.23;;
1308;SDS011;647;48.840;9.314;2022-11-12T06:55:36;64.13;;;10.68;;
1308;SDS011;647;48.840;9.314;2022-11-12T06:58:03;65.18;;;10.30;;
1308;SDS011;647;48.840;9.314;2022-11-12T07:00:30;68.43;;;11.73;;
1308;SDS011;647;48.840;9.314;2022-11-12T07:02:56;64.90;;;10.35;;
1308;SDS011;647;48.840;9.314;2022-11-12T07:05:24;68.43;;;11.07;;
1308;SDS011;647;48.840;9.314;2022-11-12T07:07:53;67.80;;;11.20;;
1308;SDS011;647;48.840;9.314;2022-11-12T07:10:20;69.18;;;11.52;;
1308;SDS011;647;48.840;9.314;2022-11-12T07:12:46;68.15;;;12.40;;
1308;SDS011;647;48.840;9.314;2022-11-12T07:15:13;66.82;;;11.02;;
1308;SDS011;647;48.840;9.314;2022-11-12T07:17:43;67.30;;;11.30;;
1308;SDS011;647;48.840;9.314;2022-11-12T07:20:10;65.25;;;10.18;;
1308;SDS011;647;48.840;9.314;2022-11-12T07:22:39;70.03;;;13.10;;
1308;SDS011;647;48.840;9.314;2022-11-12T07:25:06;69.72;;;11.98;;
1308;SDS011;647;48.840;9.314;2022-11-12T07:27:33;67.32;;;12.00;;
1308;SDS011;647;48.840;9.314;2022-11-12T07:30:00;69.00;;;13.73;;
1308;SDS011;647;48.840;9.314;2022-11-12T07:32:27;70.38;;;13.52;;
1308;SDS011;647;48.840;9.314;2022-11-12T07:34:54;69.55;;;12.85;;
1308;SDS011;647;48.840;9.314;2022-11-12T07:37:21;68.95;;;12.63;;
1308;SDS011;647;48.840;9.314;2022-11-12T07:39:49;69.25;;;12.93;;
1308;SDS011;647;48.840;9.314;2022-11-12T07:42:16;69.50;;;12.80;;
1308;SDS011;647;48.840;9.314;2022-11-12T07:44:43;67.07;;;13.32;;
1308;SDS011;647;48.840;9.314;2022-11-12T07:47:10;69.15;;;12.20;;
1308;SDS011;647;48.840;9.314;2022-11-12T07:49:37;69.20;;;13.35;;
1308;SDS011;647;48.840;9.314;2022-11-12T07:52:03;70.60;;;14.10;;
1308;SDS011;647;48.840;9.314;2022-11-12T07:54:30;69.57;;;13.27;;
1308;SDS011;647;48.840;9.314;2022-11-12T07:56:58;68.70;;;12.57;;
1308;SDS011;647;48.840;9.314;2022-11-12T07:59:25;69.03;;;11.75;;
1308;SDS011;647;48.840;9.314;2022-11-12T08:01:52;69.50;;;12.93;;
1308;SDS011;647;48.840;9.314;2022-11-12T08:04:19;68.75;;;12.80;;
1308;SDS011;647;48.840;9.314;2022-11-12T08:06:45;69.00;;;13.18;;
1308;SDS011;647;48.840;9.314;2022-11-12T08:09:13;67.93;;;13.43;;
1308;SDS011;647;48.840;9.314;2022-11-12T08:11:40;68.40;;;11.43;;
1308;SDS011;647;48.840;9.314;2022-11-12T08:14:08;68.65;;;12.70;;
1308;SDS011;647;48.840;9.314;2022-11-12T08:16:35;68.18;;;12.30;;
1308;SDS011;647;48.840;9.314;2022-11-12T08:19:02;67.82;;;12.15;;
1308;SDS011;647;48.840;9.314;2022-11-12T08:21:29;68.63;;;12.20;;
1308;SDS011;647;48.840;9.314;2022-11-12T08:23:55;70.38;;;13.30;;
1308;SDS011;647;48.840;9.314;2022-11-12T08:26:22;70.80;;;12.70;;
1308;SDS011;647;48.840;9.314;2022-11-12T08:28:50;66.47;;;11.10;;
1308;SDS011;647;48.840;9.314;2022-11-12T08:31:19;69.80;;;11.27;;
1308;SDS011;647;48.840;9.314;2022-11-12T08:33:47;66.47;;;11.73;;
1308;SDS011;647;48.840;9.314;2022-11-12T08:36:15;65.07;;;10.73;;
1308;SDS011;647;48.840;9.314;2022-11-12T08:38:42;75.07;;;19.17;;
1308;SDS011;647;48.840;9.314;2022-11-12T08:41:10;69.40;;;14.20;;
1308;SDS011;647;48.840;9.314;2022-11-12T08:43:38;68.43;;;12.23;;
1308;SDS011;647;48.840;9.314;2022-11-12T08:46:06;70.27;;;13.17;;
1308;SDS011;647;48.840;9.314;2022-11-12T08:48:34;67.00;;;11.90;;
1308;SDS011;647;48.840;9.314;2022-11-12T08:51:04;64.77;;;9.90;;
1308;SDS011;647;48.840;9.314;2022-11-12T08:53:31;69.87;;;10.67;;
1308;SDS011;647;48.840;9.314;2022-11-12T08:55:58;95.47;;;11.70;;
1308;SDS011;647;48.840;9.314;2022-11-12T08:58:25;84.30;;;11.23;;
1308;SDS011;647;48.840;9.314;2022-11-12T09:00:53;65.87;;;9.97;;
1308;SDS011;647;48.840;9.314;2022-11-12T09:03:21;64.17;;;9.87;;
1308;SDS011;647;48.840;9.314;2022-11-12T09:05:51;65.87;;;9.37;;
1308;SDS011;647;48.840;9.314;2022-11-12T09:08:18;67.17;;;10.40;;
1308;SDS011;647;48.840;9.314;2022-11-12T09:10:46;69.43;;;10.80;;
1308;SDS011;647;48.840;9.314;2022-11-12T09:13:14;68.53;;;9.20;;
1308;SDS011;647;48.840;9.314;2022-11-12T09:15:42;66.27;;;9.27;;
1308;SDS011;647;48.840;9.314;2022-11-12T09:18:10;68.03;;;9.50;;
1308;SDS011;647;48.840;9.314;2022-11-12T09:20:37;65.40;;;9.20;;
1308;SDS011;647;48.840;9.314;2022-11-12T09:23:06;66.67;;;8.90;;
1308;SDS011;647;48.840;9.314;2022-11-12T09:25:35;66.53;;;9.80;;
1308;SDS011;647;48.840;9.314;2022-11-12T09:28:06;64.87;;;8.20;;
1308;SDS011;647;48.840;9.314;2022-11-12T09:30:34;63.80;;;9.43;;
1308;SDS011;647;48.840;9.314;2022-11-12T09:33:02;70.30;;;10.00;;
1308;SDS011;647;48.840;9.314;2022-11-12T09:35:29;64.43;;;8.47;;
1308;SDS011;647;48.840;9.314;2022-11-12T09:37:56;66.17;;;8.60;;
1308;SDS011;647;48.840;9.314;2022-11-12T09:40:31;64.27;;;9.30;;
1308;SDS011;647;48.840;9.314;2022-11-12T09:43:10;63.40;;;8.20;;
1308;SDS011;647;48.840;9.314;2022-11-12T09:45:44;64.13;;;8.33;;
1308;SDS011;647;48.840;9.314;2022-11-12T09:48:14;63.20;;;8.20;;
1308;SDS011;647;48.840;9.314;2022-11-12T09:50:48;65.83;;;8.20;;
1308;SDS011;647;48.840;9.314;2022-11-12T09:53:24;63.47;;;7.97;;
1308;SDS011;647;48.840;9.314;2022-11-12T09:55:58;64.97;;;7.43;;
1308;SDS011;647;48.840;9.314;2022-11-12T09:58:25;62.30;;;7.60;;
1308;SDS011;647;48.840;9.314;2022-11-12T10:00:53;61.70;;;6.77;;
1308;SDS011;647;48.840;9.314;2022-11-12T10:03:27;62.30;;;8.07;;
1308;SDS011;647;48.840;9.314;2022-11-12T10:06:03;63.90;;;7.17;;
1308;SDS011;647;48.840;9.314;2022-11-12T10:08:36;61.50;;;6.97;;
1308;SDS011;647;48.840;9.314;2022-11-12T10:11:19;62.37;;;7.10;;
1308;SDS011;647;48.840;9.314;2022-11-12T10:14:28;61.43;;;6.60;;
1308;SDS011;647;48.840;9.314;2022-11-12T10:17:07;63.83;;;7.87;;
1308;SDS011;647;48.840;9.314;2022-11-12T10:19:41;62.20;;;6.90;;
1308;SDS011;647;48.840;9.314;2022-11-12T10:22:25;63.60;;;7.33;;
1308;SDS011;647;48.840;9.314;2022-11-12T10:25:07;63.17;;;6.83;;
1308;SDS011;647;48.840;9.314;2022-11-12T10:27:40;65.60;;;7.17;;
1308;SDS011;647;48.840;9.314;2022-11-12T10:30:12;61.83;;;6.90;;
1308;SDS011;647;48.840;9.314;2022-11-12T10:32:41;65.93;;;7.10;;
1308;SDS011;647;48.840;9.314;2022-11-12T10:35:09;63.00;;;6.83;;
1308;SDS011;647;48.840;9.314;2022-11-12T10:37:38;62.30;;;7.50;;
1308;SDS011;647;48.840;9.314;2022-11-12T10:40:24;62.50;;;6.83;;
1308;SDS011;647;48.840;9.314;2022-11-12T10:42:58;61.57;;;6.27;;
1308;SDS011;647;48.840;9.314;2022-11-12T10:45:26;62.60;;;6.53;;
1308;SDS011;647;48.840;9.314;2022-11-12T10:47:54;61.73;;;6.60;;
1308;SDS011;647;48.840;9.314;2022-11-12T10:50:21;62.00;;;7.73;;
1308;SDS011;647;48.840;9.314;2022-11-12T10:52:53;63.87;;;8.10;;
1308;SDS011;647;48.840;9.314;2022-11-12T10:55:22;61.57;;;6.90;;
1308;SDS011;647;48.840;9.314;2022-11-12T10:58:05;62.60;;;6.90;;
1308;SDS011;647;48.840;9.314;2022-11-12T11:00:51;63.83;;;6.43;;
1308;SDS011;647;48.840;9.314;2022-11-12T11:03:21;61.30;;;7.40;;
1308;SDS011;647;48.840;9.314;2022-11-12T11:05:51;63.97;;;7.23;;
1308;SDS011;647;48.840;9.314;2022-11-12T11:08:32;63.00;;;6.53;;
1308;SDS011;647;48.840;9.314;2022-11-12T11:11:13;63.13;;;6.60;;
1308;SDS011;647;48.840;9.314;2022-11-12T11:13:46;60.33;;;6.20;;
1308;SDS011;647;48.840;9.314;2022-11-12T11:16:14;62.50;;;7.07;;
1308;SDS011;647;48.840;9.314;2022-11-12T11:18:44;61.00;;;6.40;;
1308;SDS011;647;48.840;9.314;2022-11-12T11:21:19;60.80;;;6.53;;
1308;SDS011;647;48.840;9.314;2022-11-12T11:23:49;61.90;;;6.70;;
1308;SDS011;647;48.840;9.314;2022-11-12T11:26:21;62.57;;;7.07;;
1308;SDS011;647;48.840;9.314;2022-11-12T11:28:54;62.17;;;7.33;;
1308;SDS011;647;48.840;9.314;2022-11-12T11:31:27;64.57;;;9.20;;
1308;SDS011;647;48.840;9.314;2022-11-12T11:33:56;63.47;;;7.43;;
1308;SDS011;647;48.840;9.314;2022-11-12T11:36:29;61.40;;;6.80;;
1308;SDS011;647;48.840;9.314;2022-11-12T11:39:02;61.03;;;7.13;;
1308;SDS011;647;48.840;9.314;2022-11-12T11:41:36;60.83;;;6.57;;
1308;SDS011;647;48.840;9.314;2022-11-12T11:44:10;63.80;;;8.20;;
1308;SDS011;647;48.840;9.314;2022-11-12T11:46:44;62.27;;;6.83;;
1308;SDS011;647;48.840;9.314;2022-11-12T11:51:58;61.20;;;6.70;;
1308;SDS011;647;48.840;9.314;2022-11-12T11:54:34;62.70;;;6.87;;
1308;SDS011;647;48.840;9.314;2022-11-12T11:57:09;64.67;;;7.63;;
1308;SDS011;647;48.840;9.314;2022-11-12T11:59:41;61.97;;;7.00;;
1308;SDS011;647;48.840;9.314;2022-11-12T12:02:16;62.43;;;6.90;;
1308;SDS011;647;48.840;9.314;2022-11-12T12:04:46;61.60;;;6.90;;
1308;SDS011;647;48.840;9.314;2022-11-12T12:07:18;61.47;;;7.20;;
1308;SDS011;647;48.840;9.314;2022-11-12T12:09:48;61.57;;;7.00;;
1308;SDS011;647;48.840;9.314;2022-11-12T12:12:24;60.37;;;6.37;;
1308;SDS011;647;48.840;9.314;2022-11-12T12:15:07;62.50;;;6.80;;
1308;SDS011;647;48.840;9.314;2022-11-12T12:17:51;61.30;;;6.63;;
1308;SDS011;647;48.840;9.314;2022-11-12T12:20:26;61.60;;;6.40;;
1308;SDS011;647;48.840;9.314;2022-11-12T12:23:01;61.50;;;6.33;;
1308;SDS011;647;48.840;9.314;2022-11-12T12:25:32;64.07;;;6.27;;
1308;SDS011;647;48.840;9.314;2022-11-12T12:28:04;61.33;;;6.73;;
1308;SDS011;647;48.840;9.314;2022-11-12T12:30:40;60.77;;;6.50;;
1308;SDS011;647;48.840;9.314;2022-11-12T12:33:16;65.07;;;6.40;;
1308;SDS011;647;48.840;9.314;2022-11-12T12:35:50;60.60;;;6.60;;
1308;SDS011;647;48.840;9.314;2022-11-12T12:38:23;61.27;;;6.40;;
1308;SDS011;647;48.840;9.314;2022-11-12T12:40:58;64.77;;;5.90;;
1308;SDS011;647;48.840;9.314;2022-11-12T12:43:31;62.40;;;6.73;;
1308;SDS011;647;48.840;9.314;2022-11-12T12:46:03;59.67;;;6.10;;
1308;SDS011;647;48.840;9.314;2022-11-12T12:48:32;62.30;;;6.70;;
1308;SDS011;647;48.840;9.314;2022-11-12T12:51:03;61.30;;;6.40;;
1308;SDS011;647;48.840;9.314;2022-11-12T12:53:30;62.90;;;10.07;;
1308;SDS011;647;48.840;9.314;2022-11-12T12:55:59;60.83;;;6.97;;
1308;SDS011;647;48.840;9.314;2022-11-12T12:58:28;63.20;;;8.37;;
1308;SDS011;647;48.840;9.314;2022-11-12T13:00:58;62.17;;;6.60;;
1308;SDS011;647;48.840;9.314;2022-11-12T13:06:25;62.60;;;7.50;;
1308;SDS011;647;48.840;9.314;2022-11-12T13:08:55;60.50;;;5.90;;
1308;SDS011;647;48.840;9.314;2022-11-12T13:17:47;62.30;;;7.33;;
1308;SDS011;647;48.840;9.314;2022-11-12T13:20:28;63.27;;;8.07;;
1308;SDS011;647;48.840;9.314;2022-11-12T13:22:59;61.90;;;7.93;;
1308;SDS011;647;48.840;9.314;2022-11-12T13:25:27;61.20;;;6.87;;
1308;SDS011;647;48.840;9.314;2022-11-12T13:28:05;63.63;;;6.77;;
1308;SDS011;647;48.840;9.314;2022-11-12T13:33:30;59.87;;;5.80;;
1308;SDS011;647;48.840;9.314;2022-11-12T13:38:53;60.87;;;5.83;;
1308;SDS011;647;48.840;9.314;2022-11-12T13:41:24;60.57;;;6.67;;
1308;SDS011;647;48.840;9.314;2022-11-12T13:44:11;61.43;;;6.23;;
1308;SDS011;647;48.840;9.314;2022-11-12T13:46:41;60.30;;;6.57;;
1308;SDS011;647;48.840;9.314;2022-11-12T13:49:10;60.30;;;6.60;;
1308;SDS011;647;48.840;9.314;2022-11-12T13:51:41;60.90;;;6.70;;
1308;SDS011;647;48.840;9.314;2022-11-12T13:54:30;61.10;;;7.00;;
1308;SDS011;647;48.840;9.314;2022-11-12T13:57:15;61.27;;;7.20;;
1308;SDS011;647;48.840;9.314;2022-11-12T14:02:35;61.60;;;7.23;;
1308;SDS011;647;48.840;9.314;2022-11-12T14:05:10;64.20;;;7.80;;
1308;SDS011;647;48.840;9.314;2022-11-12T14:07:42;62.40;;;7.53;;
1308;SDS011;647;48.840;9.314;2022-11-12T14:10:19;61.97;;;7.57;;
1308;SDS011;647;48.840;9.314;2022-11-12T14:13:00;65.20;;;7.70;;
1308;SDS011;647;48.840;9.314;2022-11-12T14:18:45;65.60;;;7.93;;
1308;SDS011;647;48.840;9.314;2022-11-12T14:21:24;64.57;;;8.30;;
1308;SDS011;647;48.840;9.314;2022-11-12T14:23:52;65.30;;;8.70;;
1308;SDS011;647;48.840;9.314;2022-11-12T14:26:32;63.07;;;8.60;;
1308;SDS011;647;48.840;9.314;2022-11-12T14:29:00;68.70;;;10.57;;
1308;SDS011;647;48.840;9.314;2022-11-12T14:31:27;66.17;;;9.80;;
1308;SDS011;647;48.840;9.314;2022-11-12T14:33:53;65.77;;;8.80;;
1308;SDS011;647;48.840;9.314;2022-11-12T14:36:20;65.20;;;8.90;;
1308;SDS011;647;48.840;9.314;2022-11-12T14:38:49;63.23;;;7.93;;
1308;SDS011;647;48.840;9.314;2022-11-12T14:41:18;64.67;;;8.00;;
1308;SDS011;647;48.840;9.314;2022-11-12T14:43:47;63.77;;;8.50;;
1308;SDS011;647;48.840;9.314;2022-11-12T14:46:20;62.67;;;7.97;;
1308;SDS011;647;48.840;9.314;2022-11-12T14:48:50;70.27;;;8.90;;
1308;SDS011;647;48.840;9.314;2022-11-12T14:51:19;62.57;;;7.87;;
1308;SDS011;647;48.840;9.314;2022-11-12T14:53:51;64.50;;;9.00;;
1308;SDS011;647;48.840;9.314;2022-11-12T14:56:24;63.40;;;8.50;;
1308;SDS011;647;48.840;9.314;2022-11-12T14:58:53;64.27;;;8.70;;
1308;SDS011;647;48.840;9.314;2022-11-12T15:01:23;62.30;;;8.10;;
1308;SDS011;647;48.840;9.314;2022-11-12T15:03:51;64.67;;;9.07;;
1308;SDS011;647;48.840;9.314;2022-11-12T15:06:30;65.30;;;9.50;;
1308;SDS011;647;48.840;9.314;2022-11-12T15:08:58;64.40;;;9.00;;
1308;SDS011;647;48.840;9.314;2022-11-12T15:11:27;66.90;;;9.30;;
1308;SDS011;647;48.840;9.314;2022-11-12T15:13:55;66.67;;;9.50;;
1308;SDS011;647;48.840;9.314;2022-11-12T15:16:28;64.70;;;9.10;;
1308;SDS011;647;48.840;9.314;2022-11-12T15:19:00;65.90;;;9.97;;
1308;SDS011;647;48.840;9.314;2022-11-12T15:21:29;66.30;;;10.50;;
1308;SDS011;647;48.840;9.314;2022-11-12T15:23:59;64.40;;;10.07;;
1308;SDS011;647;48.840;9.314;2022-11-12T15:26:34;66.20;;;10.50;;
1308;SDS011;647;48.840;9.314;2022-11-12T15:29:03;66.20;;;10.97;;
1308;SDS011;647;48.840;9.314;2022-11-12T15:31:43;66.17;;;11.00;;
1308;SDS011;647;48.840;9.314;2022-11-12T15:34:18;64.67;;;10.23;;
1308;SDS011;647;48.840;9.314;2022-11-12T15:36:51;69.00;;;10.77;;
1308;SDS011;647;48.840;9.314;2022-11-12T15:39:18;64.90;;;10.00;;
1308;SDS011;647;48.840;9.314;2022-11-12T15:41:47;69.50;;;12.90;;
1308;SDS011;647;48.840;9.314;2022-11-12T15:44:25;68.43;;;10.97;;
1308;SDS011;647;48.840;9.314;2022-11-12T15:46:55;66.80;;;11.33;;